Terminal Aerodrome Forecast
Issued by NWS Lake Charles, LA

Home | Current Version | Previous Version | Text Only | Print | Product List | Glossary On
Versions: 1 2 3 4 5 6 7 8 9 10 11 12 13 14 15 16 17
000
FTUS44 KLCH 272300
TAFARA
TAF
KARA 272339Z 2800/2824 20010KT 4SM BR VCSH OVC006
      TEMPO 2802/2804 1SM BR OVC002
     FM280400 32012G19KT 4SM -SHRA SCT003 OVC009
     FM280700 34008KT 3SM BR VCSH OVC005
      TEMPO 2807/2811 -SHRA
     FM281500 36012G18KT 5SM BR VCSH OVC010
      TEMPO 2816/2820 -SHRA=

USA.gov is the U.S. government's official web portal to all federal, state and local government web resources and services.